sensor_id;sensor_type;location;lat;lon;timestamp;temperature;humidity
27797;DHT22;15177;50.844;4.412;2023-04-03T00:01:15;5.50;99.90
27797;DHT22;15177;50.844;4.412;2023-04-03T00:03:41;5.30;99.90
27797;DHT22;15177;50.844;4.412;2023-04-03T00:06:07;5.40;99.90
27797;DHT22;15177;50.844;4.412;2023-04-03T00:08:34;5.30;99.90
27797;DHT22;15177;50.844;4.412;2023-04-03T00:11:01;5.30;99.90
27797;DHT22;15177;50.844;4.412;2023-04-03T00:13:28;5.30;99.90
27797;DHT22;15177;50.844;4.412;2023-04-03T00:15:54;5.30;99.90
27797;DHT22;15177;50.844;4.412;2023-04-03T00:18:20;5.20;99.90
27797;DHT22;15177;50.844;4.412;2023-04-03T00:20:46;5.10;99.90
27797;DHT22;15177;50.844;4.412;2023-04-03T00:23:11;5.20;99.90
27797;DHT22;15177;50.844;4.412;2023-04-03T00:25:37;5.20;99.90
27797;DHT22;15177;50.844;4.412;2023-04-03T00:28:04;5.00;99.90
27797;DHT22;15177;50.844;4.412;2023-04-03T00:30:30;5.00;99.90
27797;DHT22;15177;50.844;4.412;2023-04-03T00:32:56;5.00;99.90
27797;DHT22;15177;50.844;4.412;2023-04-03T00:35:23;5.00;99.90
27797;DHT22;15177;50.844;4.412;2023-04-03T00:37:53;5.10;99.90
27797;DHT22;15177;50.844;4.412;2023-04-03T00:40:21;5.00;99.90
27797;DHT22;15177;50.844;4.412;2023-04-03T00:42:48;5.00;99.90
27797;DHT22;15177;50.844;4.412;2023-04-03T00:45:27;5.00;99.90
27797;DHT22;15177;50.844;4.412;2023-04-03T00:47:54;4.80;99.90
27797;DHT22;15177;50.844;4.412;2023-04-03T00:50:21;4.90;99.90
27797;DHT22;15177;50.844;4.412;2023-04-03T00:52:47;4.90;99.90
27797;DHT22;15177;50.844;4.412;2023-04-03T00:55:15;4.70;99.90
27797;DHT22;15177;50.844;4.412;2023-04-03T00:57:41;4.70;99.90
27797;DHT22;15177;50.844;4.412;2023-04-03T01:00:11;4.50;99.90
27797;DHT22;15177;50.844;4.412;2023-04-03T01:02:37;4.60;99.90
27797;DHT22;15177;50.844;4.412;2023-04-03T01:05:06;4.60;99.90
27797;DHT22;15177;50.844;4.412;2023-04-03T01:07:32;4.60;99.90
27797;DHT22;15177;50.844;4.412;2023-04-03T01:10:02;4.60;99.90
27797;DHT22;15177;50.844;4.412;2023-04-03T01:12:34;4.60;99.90
27797;DHT22;15177;50.844;4.412;2023-04-03T01:15:12;4.60;99.90
27797;DHT22;15177;50.844;4.412;2023-04-03T01:17:47;4.60;99.90
27797;DHT22;15177;50.844;4.412;2023-04-03T01:25:34;4.50;99.90
27797;DHT22;15177;50.844;4.412;2023-04-03T01:28:00;4.50;99.90
27797;DHT22;15177;50.844;4.412;2023-04-03T01:30:31;4.50;99.90
27797;DHT22;15177;50.844;4.412;2023-04-03T01:32:57;4.50;99.90
27797;DHT22;15177;50.844;4.412;2023-04-03T01:35:22;4.30;99.90
27797;DHT22;15177;50.844;4.412;2023-04-03T01:37:48;4.30;99.90
27797;DHT22;15177;50.844;4.412;2023-04-03T01:40:14;4.40;99.90
27797;DHT22;15177;50.844;4.412;2023-04-03T01:42:39;4.40;99.90
27797;DHT22;15177;50.844;4.412;2023-04-03T01:45:05;4.30;99.90
27797;DHT22;15177;50.844;4.412;2023-04-03T01:47:31;4.40;99.90
27797;DHT22;15177;50.844;4.412;2023-04-03T01:49:56;4.40;99.90
27797;DHT22;15177;50.844;4.412;2023-04-03T01:52:22;4.40;99.90
27797;DHT22;15177;50.844;4.412;2023-04-03T01:54:47;4.40;99.90
27797;DHT22;15177;50.844;4.412;2023-04-03T01:57:13;4.20;99.90
27797;DHT22;15177;50.844;4.412;2023-04-03T01:59:40;4.20;99.90
27797;DHT22;15177;50.844;4.412;2023-04-03T02:02:06;4.10;99.90
27797;DHT22;15177;50.844;4.412;2023-04-03T02:04:32;4.00;99.90
27797;DHT22;15177;50.844;4.412;2023-04-03T02:06:57;3.90;99.90
27797;DHT22;15177;50.844;4.412;2023-04-03T02:09:23;3.80;99.90
27797;DHT22;15177;50.844;4.412;2023-04-03T02:11:52;3.90;99.90
27797;DHT22;15177;50.844;4.412;2023-04-03T02:14:17;3.80;99.90
27797;DHT22;15177;50.844;4.412;2023-04-03T02:16:43;4.00;99.90
27797;DHT22;15177;50.844;4.412;2023-04-03T02:19:08;3.90;99.90
27797;DHT22;15177;50.844;4.412;2023-04-03T02:21:34;4.00;99.90
27797;DHT22;15177;50.844;4.412;2023-04-03T02:24:00;4.00;99.90
27797;DHT22;15177;50.844;4.412;2023-04-03T02:26:25;3.80;99.90
27797;DHT22;15177;50.844;4.412;2023-04-03T02:28:52;3.80;99.90
27797;DHT22;15177;50.844;4.412;2023-04-03T02:31:19;3.80;99.90
27797;DHT22;15177;50.844;4.412;2023-04-03T02:33:46;3.80;99.90
27797;DHT22;15177;50.844;4.412;2023-04-03T02:36:14;3.70;99.90
27797;DHT22;15177;50.844;4.412;2023-04-03T02:38:40;3.70;99.90
27797;DHT22;15177;50.844;4.412;2023-04-03T02:41:08;3.80;99.90
27797;DHT22;15177;50.844;4.412;2023-04-03T02:43:34;4.00;99.90
27797;DHT22;15177;50.844;4.412;2023-04-03T02:46:00;4.00;99.90
27797;DHT22;15177;50.844;4.412;2023-04-03T02:48:25;4.00;99.90
27797;DHT22;15177;50.844;4.412;2023-04-03T02:50:51;4.00;99.90
27797;DHT22;15177;50.844;4.412;2023-04-03T02:53:17;4.00;99.90
27797;DHT22;15177;50.844;4.412;2023-04-03T02:55:43;3.80;99.90
27797;DHT22;15177;50.844;4.412;2023-04-03T02:58:09;4.00;99.90
27797;DHT22;15177;50.844;4.412;2023-04-03T03:00:35;4.10;99.90
27797;DHT22;15177;50.844;4.412;2023-04-03T03:03:00;4.10;99.90
27797;DHT22;15177;50.844;4.412;2023-04-03T03:05:27;4.00;99.90
27797;DHT22;15177;50.844;4.412;2023-04-03T03:07:53;3.80;99.90
27797;DHT22;15177;50.844;4.412;2023-04-03T03:10:18;3.80;99.90
27797;DHT22;15177;50.844;4.412;2023-04-03T03:12:44;3.70;99.90
27797;DHT22;15177;50.844;4.412;2023-04-03T03:15:10;3.80;99.90
27797;DHT22;15177;50.844;4.412;2023-04-03T03:17:35;3.90;99.90
27797;DHT22;15177;50.844;4.412;2023-04-03T03:20:02;4.00;99.90
27797;DHT22;15177;50.844;4.412;2023-04-03T03:22:28;4.20;99.90
27797;DHT22;15177;50.844;4.412;2023-04-03T03:24:53;4.10;99.90
27797;DHT22;15177;50.844;4.412;2023-04-03T03:27:20;4.00;99.90
27797;DHT22;15177;50.844;4.412;2023-04-03T03:29:46;4.00;99.90
27797;DHT22;15177;50.844;4.412;2023-04-03T03:32:11;3.80;99.90
27797;DHT22;15177;50.844;4.412;2023-04-03T03:34:37;3.90;99.90
27797;DHT22;15177;50.844;4.412;2023-04-03T03:37:03;3.90;99.90
27797;DHT22;15177;50.844;4.412;2023-04-03T03:39:28;4.00;99.90
27797;DHT22;15177;50.844;4.412;2023-04-03T03:41:54;3.90;99.90
27797;DHT22;15177;50.844;4.412;2023-04-03T03:44:20;3.90;99.90
27797;DHT22;15177;50.844;4.412;2023-04-03T03:46:46;3.80;99.90
27797;DHT22;15177;50.844;4.412;2023-04-03T03:49:11;3.90;99.90
27797;DHT22;15177;50.844;4.412;2023-04-03T03:51:38;3.90;99.90
27797;DHT22;15177;50.844;4.412;2023-04-03T03:54:04;3.90;99.90
27797;DHT22;15177;50.844;4.412;2023-04-03T03:56:30;3.90;99.90
27797;DHT22;15177;50.844;4.412;2023-04-03T03:58:56;4.10;99.90
27797;DHT22;15177;50.844;4.412;2023-04-03T04:01:23;4.00;99.90
27797;DHT22;15177;50.844;4.412;2023-04-03T04:03:48;4.00;99.90
27797;DHT22;15177;50.844;4.412;2023-04-03T04:06:14;3.90;99.90
27797;DHT22;15177;50.844;4.412;2023-04-03T04:08:40;3.70;99.90
27797;DHT22;15177;50.844;4.412;2023-04-03T04:11:06;3.80;99.90
27797;DHT22;15177;50.844;4.412;2023-04-03T04:13:32;3.90;99.90
27797;DHT22;15177;50.844;4.412;2023-04-03T04:15:57;4.00;99.90
27797;DHT22;15177;50.844;4.412;2023-04-03T04:18:23;4.00;99.90
27797;DHT22;15177;50.844;4.412;2023-04-03T04:20:49;3.80;99.90
27797;DHT22;15177;50.844;4.412;2023-04-03T04:23:16;4.00;99.90
27797;DHT22;15177;50.844;4.412;2023-04-03T04:25:44;4.00;99.90
27797;DHT22;15177;50.844;4.412;2023-04-03T04:28:10;3.90;99.90
27797;DHT22;15177;50.844;4.412;2023-04-03T04:30:36;3.90;99.90
27797;DHT22;15177;50.844;4.412;2023-04-03T04:33:02;3.80;99.90
27797;DHT22;15177;50.844;4.412;2023-04-03T04:35:27;3.70;99.90
27797;DHT22;15177;50.844;4.412;2023-04-03T04:37:53;3.90;99.90
27797;DHT22;15177;50.844;4.412;2023-04-03T04:40:19;3.80;99.90
27797;DHT22;15177;50.844;4.412;2023-04-03T04:42:44;3.80;99.90
27797;DHT22;15177;50.844;4.412;2023-04-03T04:45:10;3.80;99.90
27797;DHT22;15177;50.844;4.412;2023-04-03T04:47:36;3.90;99.90
27797;DHT22;15177;50.844;4.412;2023-04-03T04:50:01;3.60;99.90
27797;DHT22;15177;50.844;4.412;2023-04-03T04:52:28;3.60;99.90
27797;DHT22;15177;50.844;4.412;2023-04-03T04:54:54;3.60;99.90
27797;DHT22;15177;50.844;4.412;2023-04-03T04:57:19;3.60;99.90
27797;DHT22;15177;50.844;4.412;2023-04-03T04:59:45;3.60;99.90
27797;DHT22;15177;50.844;4.412;2023-04-03T05:02:11;3.60;99.90
27797;DHT22;15177;50.844;4.412;2023-04-03T05:04:36;3.50;99.90
27797;DHT22;15177;50.844;4.412;2023-04-03T05:07:02;3.40;99.90
27797;DHT22;15177;50.844;4.412;2023-04-03T05:09:28;3.50;99.90
27797;DHT22;15177;50.844;4.412;2023-04-03T05:11:53;3.40;99.90
27797;DHT22;15177;50.844;4.412;2023-04-03T05:14:19;3.40;99.90
27797;DHT22;15177;50.844;4.412;2023-04-03T05:16:45;3.50;99.90
27797;DHT22;15177;50.844;4.412;2023-04-03T05:19:11;3.50;99.90
27797;DHT22;15177;50.844;4.412;2023-04-03T05:21:36;3.50;99.90
27797;DHT22;15177;50.844;4.412;2023-04-03T05:24:02;3.50;99.90
27797;DHT22;15177;50.844;4.412;2023-04-03T05:26:30;3.60;99.90
27797;DHT22;15177;50.844;4.412;2023-04-03T05:28:55;3.50;99.90
27797;DHT22;15177;50.844;4.412;2023-04-03T05:31:21;3.50;99.90
27797;DHT22;15177;50.844;4.412;2023-04-03T05:33:48;3.50;99.90
27797;DHT22;15177;50.844;4.412;2023-04-03T05:36:15;3.60;99.90
27797;DHT22;15177;50.844;4.412;2023-04-03T05:38:40;3.60;99.90
27797;DHT22;15177;50.844;4.412;2023-04-03T05:41:06;3.60;99.90
27797;DHT22;15177;50.844;4.412;2023-04-03T05:43:32;3.70;99.90
27797;DHT22;15177;50.844;4.412;2023-04-03T05:45:59;3.80;99.90
27797;DHT22;15177;50.844;4.412;2023-04-03T05:48:24;3.90;99.90
27797;DHT22;15177;50.844;4.412;2023-04-03T05:50:51;3.70;99.90
27797;DHT22;15177;50.844;4.412;2023-04-03T05:53:20;3.80;99.90
27797;DHT22;15177;50.844;4.412;2023-04-03T05:55:46;3.80;99.90
27797;DHT22;15177;50.844;4.412;2023-04-03T05:58:12;3.90;99.90
27797;DHT22;15177;50.844;4.412;2023-04-03T06:00:38;4.10;99.90
27797;DHT22;15177;50.844;4.412;2023-04-03T06:03:04;4.10;99.90
27797;DHT22;15177;50.844;4.412;2023-04-03T06:05:30;4.00;99.90
27797;DHT22;15177;50.844;4.412;2023-04-03T06:07:56;4.00;99.90
27797;DHT22;15177;50.844;4.412;2023-04-03T06:10:22;4.20;99.90
27797;DHT22;15177;50.844;4.412;2023-04-03T06:12:48;4.10;99.90
27797;DHT22;15177;50.844;4.412;2023-04-03T06:15:13;4.20;99.90
27797;DHT22;15177;50.844;4.412;2023-04-03T06:17:40;4.20;99.90
27797;DHT22;15177;50.844;4.412;2023-04-03T06:20:06;4.40;99.90
27797;DHT22;15177;50.844;4.412;2023-04-03T06:22:33;4.30;99.90
27797;DHT22;15177;50.844;4.412;2023-04-03T06:24:58;4.50;99.90
27797;DHT22;15177;50.844;4.412;2023-04-03T06:27:24;5.00;99.90
27797;DHT22;15177;50.844;4.412;2023-04-03T06:29:50;6.20;99.90
27797;DHT22;15177;50.844;4.412;2023-04-03T06:32:16;7.70;99.90
27797;DHT22;15177;50.844;4.412;2023-04-03T06:34:41;9.10;99.90
27797;DHT22;15177;50.844;4.412;2023-04-03T06:37:25;10.10;99.90
27797;DHT22;15177;50.844;4.412;2023-04-03T06:39:52;11.80;99.90
27797;DHT22;15177;50.844;4.412;2023-04-03T06:42:17;13.00;99.90
27797;DHT22;15177;50.844;4.412;2023-04-03T06:44:43;13.30;99.90
27797;DHT22;15177;50.844;4.412;2023-04-03T06:47:13;14.60;99.90
27797;DHT22;15177;50.844;4.412;2023-04-03T06:49:40;15.80;98.80
27797;DHT22;15177;50.844;4.412;2023-04-03T06:52:06;16.10;93.80
27797;DHT22;15177;50.844;4.412;2023-04-03T06:54:32;16.60;93.80
27797;DHT22;15177;50.844;4.412;2023-04-03T06:56:58;16.70;91.30
27797;DHT22;15177;50.844;4.412;2023-04-03T06:59:24;16.00;91.60
27797;DHT22;15177;50.844;4.412;2023-04-03T07:01:50;15.90;92.30
27797;DHT22;15177;50.844;4.412;2023-04-03T07:04:16;16.10;92.50
27797;DHT22;15177;50.844;4.412;2023-04-03T07:06:42;16.20;91.30
27797;DHT22;15177;50.844;4.412;2023-04-03T07:09:09;15.40;92.80
27797;DHT22;15177;50.844;4.412;2023-04-03T07:11:35;15.90;93.30
27797;DHT22;15177;50.844;4.412;2023-04-03T07:14:01;16.60;90.60
27797;DHT22;15177;50.844;4.412;2023-04-03T07:16:27;17.20;90.40
27797;DHT22;15177;50.844;4.412;2023-04-03T07:18:53;17.50;88.20
27797;DHT22;15177;50.844;4.412;2023-04-03T07:21:18;17.90;85.90
27797;DHT22;15177;50.844;4.412;2023-04-03T07:23:44;18.20;80.50
27797;DHT22;15177;50.844;4.412;2023-04-03T07:26:10;18.40;81.70
27797;DHT22;15177;50.844;4.412;2023-04-03T07:28:35;18.60;78.40
27797;DHT22;15177;50.844;4.412;2023-04-03T07:31:05;18.20;78.70
27797;DHT22;15177;50.844;4.412;2023-04-03T07:33:36;18.70;79.80
27797;DHT22;15177;50.844;4.412;2023-04-03T07:36:03;19.20;73.10
27797;DHT22;15177;50.844;4.412;2023-04-03T07:38:29;18.90;73.50
27797;DHT22;15177;50.844;4.412;2023-04-03T07:40:54;17.70;78.60
27797;DHT22;15177;50.844;4.412;2023-04-03T07:43:21;18.20;79.30
27797;DHT22;15177;50.844;4.412;2023-04-03T07:45:48;18.70;76.50
27797;DHT22;15177;50.844;4.412;2023-04-03T07:48:19;19.00;71.40
27797;DHT22;15177;50.844;4.412;2023-04-03T07:50:46;19.20;74.00
27797;DHT22;15177;50.844;4.412;2023-04-03T07:53:11;18.90;73.00
27797;DHT22;15177;50.844;4.412;2023-04-03T07:55:37;19.60;71.90
27797;DHT22;15177;50.844;4.412;2023-04-03T07:58:13;18.70;72.00
27797;DHT22;15177;50.844;4.412;2023-04-03T08:00:39;19.20;71.80
27797;DHT22;15177;50.844;4.412;2023-04-03T08:03:06;20.10;68.20
27797;DHT22;15177;50.844;4.412;2023-04-03T08:05:37;19.70;67.50
27797;DHT22;15177;50.844;4.412;2023-04-03T08:08:03;19.20;68.90
27797;DHT22;15177;50.844;4.412;2023-04-03T08:10:30;19.30;69.70
27797;DHT22;15177;50.844;4.412;2023-04-03T08:12:56;19.30;71.10
27797;DHT22;15177;50.844;4.412;2023-04-03T08:15:22;19.60;69.10
27797;DHT22;15177;50.844;4.412;2023-04-03T08:17:48;20.10;68.30
27797;DHT22;15177;50.844;4.412;2023-04-03T08:20:14;20.10;66.00
27797;DHT22;15177;50.844;4.412;2023-04-03T08:22:39;20.50;65.20
27797;DHT22;15177;50.844;4.412;2023-04-03T08:25:06;20.30;64.70
27797;DHT22;15177;50.844;4.412;2023-04-03T08:27:32;20.70;65.00
27797;DHT22;15177;50.844;4.412;2023-04-03T08:29:58;20.00;65.30
27797;DHT22;15177;50.844;4.412;2023-04-03T08:32:24;20.40;65.10
27797;DHT22;15177;50.844;4.412;2023-04-03T08:34:49;20.80;63.20
27797;DHT22;15177;50.844;4.412;2023-04-03T08:37:15;20.50;64.60
27797;DHT22;15177;50.844;4.412;2023-04-03T08:39:42;20.20;64.40
27797;DHT22;15177;50.844;4.412;2023-04-03T08:47:53;19.60;64.40
27797;DHT22;15177;50.844;4.412;2023-04-03T08:50:29;18.50;68.30
27797;DHT22;15177;50.844;4.412;2023-04-03T08:53:05;18.70;67.10
27797;DHT22;15177;50.844;4.412;2023-04-03T08:55:40;18.20;68.90
27797;DHT22;15177;50.844;4.412;2023-04-03T08:58:21;18.50;66.40
27797;DHT22;15177;50.844;4.412;2023-04-03T09:00:51;18.60;68.90
27797;DHT22;15177;50.844;4.412;2023-04-03T09:03:20;19.30;68.40
27797;DHT22;15177;50.844;4.412;2023-04-03T09:06:06;18.40;64.70
27797;DHT22;15177;50.844;4.412;2023-04-03T09:14:22;18.80;63.80
27797;DHT22;15177;50.844;4.412;2023-04-03T09:16:56;19.30;63.70
27797;DHT22;15177;50.844;4.412;2023-04-03T09:19:43;18.80;65.10
27797;DHT22;15177;50.844;4.412;2023-04-03T09:22:17;19.00;65.10
27797;DHT22;15177;50.844;4.412;2023-04-03T09:24:47;19.10;63.10
27797;DHT22;15177;50.844;4.412;2023-04-03T09:27:14;19.20;60.50
27797;DHT22;15177;50.844;4.412;2023-04-03T09:29:43;18.20;64.90
27797;DHT22;15177;50.844;4.412;2023-04-03T09:32:35;19.00;64.00
27797;DHT22;15177;50.844;4.412;2023-04-03T09:35:13;19.90;62.30
27797;DHT22;15177;50.844;4.412;2023-04-03T09:37:46;19.10;59.40
27797;DHT22;15177;50.844;4.412;2023-04-03T09:40:32;17.70;62.30
27797;DHT22;15177;50.844;4.412;2023-04-03T09:45:48;18.90;60.30
27797;DHT22;15177;50.844;4.412;2023-04-03T09:50:53;18.90;61.50
27797;DHT22;15177;50.844;4.412;2023-04-03T09:53:28;18.50;61.20
27797;DHT22;15177;50.844;4.412;2023-04-03T09:55:54;18.50;62.40
27797;DHT22;15177;50.844;4.412;2023-04-03T09:58:37;18.10;62.60
27797;DHT22;15177;50.844;4.412;2023-04-03T10:01:04;17.80;64.00
27797;DHT22;15177;50.844;4.412;2023-04-03T10:03:39;17.80;62.70
27797;DHT22;15177;50.844;4.412;2023-04-03T10:06:23;18.30;63.20
27797;DHT22;15177;50.844;4.412;2023-04-03T10:09:06;18.50;61.30
27797;DHT22;15177;50.844;4.412;2023-04-03T10:11:32;18.40;61.70
27797;DHT22;15177;50.844;4.412;2023-04-03T10:14:00;19.00;59.20
27797;DHT22;15177;50.844;4.412;2023-04-03T10:16:33;18.60;59.30
27797;DHT22;15177;50.844;4.412;2023-04-03T10:19:23;18.60;61.30
27797;DHT22;15177;50.844;4.412;2023-04-03T10:27:16;17.80;59.10
27797;DHT22;15177;50.844;4.412;2023-04-03T10:30:13;17.10;60.80
27797;DHT22;15177;50.844;4.412;2023-04-03T10:32:52;18.10;63.70
27797;DHT22;15177;50.844;4.412;2023-04-03T10:35:48;18.20;59.40
27797;DHT22;15177;50.844;4.412;2023-04-03T10:41:04;17.20;61.60
27797;DHT22;15177;50.844;4.412;2023-04-03T10:46:34;16.80;59.60
27797;DHT22;15177;50.844;4.412;2023-04-03T10:51:44;15.80;61.70
27797;DHT22;15177;50.844;4.412;2023-04-03T10:54:26;15.40;64.50
27797;DHT22;15177;50.844;4.412;2023-04-03T10:57:03;16.30;62.30
27797;DHT22;15177;50.844;4.412;2023-04-03T10:59:41;16.70;57.70
27797;DHT22;15177;50.844;4.412;2023-04-03T11:05:03;16.40;57.70
27797;DHT22;15177;50.844;4.412;2023-04-03T11:07:38;15.80;55.90
27797;DHT22;15177;50.844;4.412;2023-04-03T11:10:22;15.00;56.80
27797;DHT22;15177;50.844;4.412;2023-04-03T11:12:54;14.90;57.70
27797;DHT22;15177;50.844;4.412;2023-04-03T11:15:24;13.90;59.10
27797;DHT22;15177;50.844;4.412;2023-04-03T11:17:58;13.20;62.40
27797;DHT22;15177;50.844;4.412;2023-04-03T11:20:36;12.80;62.40
27797;DHT22;15177;50.844;4.412;2023-04-03T11:25:51;12.20;66.80
27797;DHT22;15177;50.844;4.412;2023-04-03T11:28:18;11.90;69.80
27797;DHT22;15177;50.844;4.412;2023-04-03T11:36:25;11.60;71.30
27797;DHT22;15177;50.844;4.412;2023-04-03T11:38:57;11.50;70.90
27797;DHT22;15177;50.844;4.412;2023-04-03T11:41:31;11.30;74.10
27797;DHT22;15177;50.844;4.412;2023-04-03T11:43:59;11.30;77.90
27797;DHT22;15177;50.844;4.412;2023-04-03T11:46:51;11.60;80.80
27797;DHT22;15177;50.844;4.412;2023-04-03T12:13:41;10.70;72.50
27797;DHT22;15177;50.844;4.412;2023-04-03T12:16:32;10.50;76.40
27797;DHT22;15177;50.844;4.412;2023-04-03T12:29:27;10.80;67.60
27797;DHT22;15177;50.844;4.412;2023-04-03T12:38:57;10.60;64.90
27797;DHT22;15177;50.844;4.412;2023-04-03T12:41:18;10.80;64.30
27797;DHT22;15177;50.844;4.412;2023-04-03T12:46:18;10.80;65.20
27797;DHT22;15177;50.844;4.412;2023-04-03T12:51:14;10.60;65.40
27797;DHT22;15177;50.844;4.412;2023-04-03T12:53:40;10.40;65.40
27797;DHT22;15177;50.844;4.412;2023-04-03T12:56:21;10.60;65.30
27797;DHT22;15177;50.844;4.412;2023-04-03T12:58:50;10.60;63.60
27797;DHT22;15177;50.844;4.412;2023-04-03T13:01:22;10.40;62.30
27797;DHT22;15177;50.844;4.412;2023-04-03T13:03:54;10.30;62.90
27797;DHT22;15177;50.844;4.412;2023-04-03T13:06:27;10.40;64.10
27797;DHT22;15177;50.844;4.412;2023-04-03T13:08:58;10.50;61.90
27797;DHT22;15177;50.844;4.412;2023-04-03T13:11:37;10.40;63.10
27797;DHT22;15177;50.844;4.412;2023-04-03T13:14:12;10.50;64.00
27797;DHT22;15177;50.844;4.412;2023-04-03T13:16:39;10.40;62.20
27797;DHT22;15177;50.844;4.412;2023-04-03T13:19:14;10.60;62.00
27797;DHT22;15177;50.844;4.412;2023-04-03T13:21:42;10.70;62.10
27797;DHT22;15177;50.844;4.412;2023-04-03T13:24:09;10.70;60.10
27797;DHT22;15177;50.844;4.412;2023-04-03T13:26:35;10.70;60.20
27797;DHT22;15177;50.844;4.412;2023-04-03T13:29:05;10.70;60.00
27797;DHT22;15177;50.844;4.412;2023-04-03T13:31:37;10.60;59.00
27797;DHT22;15177;50.844;4.412;2023-04-03T13:36:44;10.50;60.10
27797;DHT22;15177;50.844;4.412;2023-04-03T13:41:39;10.60;59.80
27797;DHT22;15177;50.844;4.412;2023-04-03T13:46:50;10.40;59.20
27797;DHT22;15177;50.844;4.412;2023-04-03T13:49:40;10.20;60.60
27797;DHT22;15177;50.844;4.412;2023-04-03T13:52:31;10.10;61.90
27797;DHT22;15177;50.844;4.412;2023-04-03T13:55:37;10.20;63.80
27797;DHT22;15177;50.844;4.412;2023-04-03T13:58:00;10.30;65.90
27797;DHT22;15177;50.844;4.412;2023-04-03T14:00:37;10.60;63.00
27797;DHT22;15177;50.844;4.412;2023-04-03T14:03:12;10.70;63.10
27797;DHT22;15177;50.844;4.412;2023-04-03T14:05:37;10.90;62.10
27797;DHT22;15177;50.844;4.412;2023-04-03T14:08:03;10.80;63.10
27797;DHT22;15177;50.844;4.412;2023-04-03T14:10:30;10.60;63.90
27797;DHT22;15177;50.844;4.412;2023-04-03T14:12:56;10.60;62.30
27797;DHT22;15177;50.844;4.412;2023-04-03T14:15:27;10.60;61.70
27797;DHT22;15177;50.844;4.412;2023-04-03T14:17:55;10.60;61.90
27797;DHT22;15177;50.844;4.412;2023-04-03T14:20:26;10.50;63.40
27797;DHT22;15177;50.844;4.412;2023-04-03T14:22:53;10.50;60.70
27797;DHT22;15177;50.844;4.412;2023-04-03T14:25:19;10.40;62.90
27797;DHT22;15177;50.844;4.412;2023-04-03T14:27:48;10.40;62.20
27797;DHT22;15177;50.844;4.412;2023-04-03T14:30:25;10.30;61.50
27797;DHT22;15177;50.844;4.412;2023-04-03T14:32:51;10.20;63.00
27797;DHT22;15177;50.844;4.412;2023-04-03T14:35:20;10.30;63.40
27797;DHT22;15177;50.844;4.412;2023-04-03T14:37:46;10.40;62.70
27797;DHT22;15177;50.844;4.412;2023-04-03T14:40:21;10.40;61.90
27797;DHT22;15177;50.844;4.412;2023-04-03T14:42:47;10.40;62.00
27797;DHT22;15177;50.844;4.412;2023-04-03T14:45:14;10.50;62.40
27797;DHT22;15177;50.844;4.412;2023-04-03T14:48:01;10.60;61.50
27797;DHT22;15177;50.844;4.412;2023-04-03T14:50:28;10.70;61.40
27797;DHT22;15177;50.844;4.412;2023-04-03T14:52:56;10.70;62.40
27797;DHT22;15177;50.844;4.412;2023-04-03T14:55:24;10.80;62.10
27797;DHT22;15177;50.844;4.412;2023-04-03T14:57:51;10.70;62.90
27797;DHT22;15177;50.844;4.412;2023-04-03T15:00:20;10.70;63.30
27797;DHT22;15177;50.844;4.412;2023-04-03T15:02:47;10.70;61.30
27797;DHT22;15177;50.844;4.412;2023-04-03T15:05:14;10.50;63.20
27797;DHT22;15177;50.844;4.412;2023-04-03T15:07:41;10.70;60.00
27797;DHT22;15177;50.844;4.412;2023-04-03T15:10:17;10.60;60.30
27797;DHT22;15177;50.844;4.412;2023-04-03T15:12:44;10.60;60.70
27797;DHT22;15177;50.844;4.412;2023-04-03T15:15:10;10.50;60.20
27797;DHT22;15177;50.844;4.412;2023-04-03T15:17:37;10.50;59.50
27797;DHT22;15177;50.844;4.412;2023-04-03T15:20:05;10.50;59.70
27797;DHT22;15177;50.844;4.412;2023-04-03T15:22:36;10.40;59.00
27797;DHT22;15177;50.844;4.412;2023-04-03T15:25:01;10.50;59.10
27797;DHT22;15177;50.844;4.412;2023-04-03T15:27:28;10.50;59.70
27797;DHT22;15177;50.844;4.412;2023-04-03T15:29:54;10.50;60.50
27797;DHT22;15177;50.844;4.412;2023-04-03T15:32:20;10.60;61.10
27797;DHT22;15177;50.844;4.412;2023-04-03T15:34:45;10.50;59.90
27797;DHT22;15177;50.844;4.412;2023-04-03T15:37:11;10.40;59.30
27797;DHT22;15177;50.844;4.412;2023-04-03T15:39:36;10.40;59.40
27797;DHT22;15177;50.844;4.412;2023-04-03T15:42:02;10.40;60.40
27797;DHT22;15177;50.844;4.412;2023-04-03T15:44:34;10.30;60.70
27797;DHT22;15177;50.844;4.412;2023-04-03T15:47:00;10.40;60.00
27797;DHT22;15177;50.844;4.412;2023-04-03T15:49:27;10.40;60.40
27797;DHT22;15177;50.844;4.412;2023-04-03T15:51:53;10.40;60.50
27797;DHT22;15177;50.844;4.412;2023-04-03T15:54:18;10.40;61.00
27797;DHT22;15177;50.844;4.412;2023-04-03T15:56:45;10.40;61.10
27797;DHT22;15177;50.844;4.412;2023-04-03T15:59:12;10.40;63.80
27797;DHT22;15177;50.844;4.412;2023-04-03T16:01:39;10.30;65.00
27797;DHT22;15177;50.844;4.412;2023-04-03T16:04:08;10.30;65.40
27797;DHT22;15177;50.844;4.412;2023-04-03T16:06:36;10.50;66.10
27797;DHT22;15177;50.844;4.412;2023-04-03T16:09:02;10.50;66.80
27797;DHT22;15177;50.844;4.412;2023-04-03T16:11:29;10.40;65.60
27797;DHT22;15177;50.844;4.412;2023-04-03T16:13:55;10.40;66.50
27797;DHT22;15177;50.844;4.412;2023-04-03T16:16:22;10.30;67.30
27797;DHT22;15177;50.844;4.412;2023-04-03T16:18:49;10.30;67.90
27797;DHT22;15177;50.844;4.412;2023-04-03T16:21:15;10.50;68.70
27797;DHT22;15177;50.844;4.412;2023-04-03T16:23:41;10.50;69.00
27797;DHT22;15177;50.844;4.412;2023-04-03T16:26:07;10.40;69.00
27797;DHT22;15177;50.844;4.412;2023-04-03T16:28:33;10.30;71.20
27797;DHT22;15177;50.844;4.412;2023-04-03T16:31:00;10.20;70.60
27797;DHT22;15177;50.844;4.412;2023-04-03T16:33:26;10.20;71.40
27797;DHT22;15177;50.844;4.412;2023-04-03T16:35:52;10.30;71.40
27797;DHT22;15177;50.844;4.412;2023-04-03T16:38:18;10.20;72.10
27797;DHT22;15177;50.844;4.412;2023-04-03T16:40:44;10.20;72.60
27797;DHT22;15177;50.844;4.412;2023-04-03T16:43:10;10.20;73.40
27797;DHT22;15177;50.844;4.412;2023-04-03T16:45:37;10.30;73.30
27797;DHT22;15177;50.844;4.412;2023-04-03T16:48:03;10.20;73.10
27797;DHT22;15177;50.844;4.412;2023-04-03T16:50:29;10.20;73.90
27797;DHT22;15177;50.844;4.412;2023-04-03T16:52:56;10.20;73.80
27797;DHT22;15177;50.844;4.412;2023-04-03T16:55:22;10.10;74.80
27797;DHT22;15177;50.844;4.412;2023-04-03T16:57:47;10.20;75.10
27797;DHT22;15177;50.844;4.412;2023-04-03T17:00:14;10.20;75.50
27797;DHT22;15177;50.844;4.412;2023-04-03T17:02:40;10.20;74.80
27797;DHT22;15177;50.844;4.412;2023-04-03T17:05:06;10.20;75.30
27797;DHT22;15177;50.844;4.412;2023-04-03T17:07:34;10.20;74.70
27797;DHT22;15177;50.844;4.412;2023-04-03T17:09:59;10.00;77.00
27797;DHT22;15177;50.844;4.412;2023-04-03T17:12:25;10.00;77.20
27797;DHT22;15177;50.844;4.412;2023-04-03T17:14:51;9.90;77.30
27797;DHT22;15177;50.844;4.412;2023-04-03T17:17:21;9.90;77.40
27797;DHT22;15177;50.844;4.412;2023-04-03T17:19:47;9.90;77.20
27797;DHT22;15177;50.844;4.412;2023-04-03T17:22:13;9.80;78.80
27797;DHT22;15177;50.844;4.412;2023-04-03T17:24:39;9.90;78.50
27797;DHT22;15177;50.844;4.412;2023-04-03T17:27:05;9.90;77.00